CLM5 weather

Lake Muskoka South Seaplane Base
Lake Muskoka, Ontario, Canada

Public forecast

Using degrees Celsius for public forecast. Weather courtesy of forecast.io.

METAR (pilot weather report)

Closest report is Muskoka Airport, 5.4 nm (10.0 km) E. Retrieved 2019/05/26 17:00 UTC (52 minutes ago):

CYQA 261700Z AUTO 27009KT 240V300 9SM CLR 18/10 A2996 RMK SLP148 DENSITY ALT 1300FT

TAF (pilot weather forecast)

Closest forecast is Muskoka Airport, 5.4 nm (10.0 km) E. Retrieved 2019/05/26 14:39 UTC (3 hours ago):

TAF CYQA 261338Z 2614/2702 30007KT P6SM FEW015 TEMPO 2614/2616 BKN015 FM261600 29010KT P6SM SCT030 BECMG 2623/2701 30006KT RMK FCST BASED ON AUTO OBS. NXT FCST BY 262000Z